createdAt,value
2023-02-03T00:01:53.149Z,8.30
2023-02-03T00:05:23.151Z,8.10
2023-02-03T00:08:50.800Z,9.20
2023-02-03T00:12:19.727Z,7.80
2023-02-03T00:15:47.861Z,9.10
2023-02-03T00:19:17.390Z,8.40
2023-02-03T00:22:45.500Z,9.70
2023-02-03T00:26:16.030Z,10.00
2023-02-03T00:29:43.491Z,9.30
2023-02-03T00:33:12.624Z,10.20
2023-02-03T00:36:46.901Z,10.90
2023-02-03T00:40:17.810Z,13.80
2023-02-03T00:43:45.150Z,15.30
2023-02-03T00:47:12.104Z,18.70
2023-02-03T00:50:40.191Z,18.50
2023-02-03T00:54:07.624Z,18.80
2023-02-03T00:57:37.009Z,17.70
2023-02-03T01:01:11.103Z,16.20
2023-02-03T01:04:39.442Z,12.00
2023-02-03T01:08:07.510Z,9.40
2023-02-03T01:11:35.755Z,7.30
2023-02-03T01:15:02.740Z,8.10
2023-02-03T01:18:30.334Z,7.50
2023-02-03T01:21:57.169Z,7.60
2023-02-03T01:25:23.717Z,6.90
2023-02-03T01:28:57.002Z,6.60
2023-02-03T01:32:28.261Z,6.70
2023-02-03T01:35:55.724Z,7.30
2023-02-03T01:39:22.470Z,6.70
2023-02-03T01:42:50.549Z,7.90
2023-02-03T01:46:32.170Z,7.70
2023-02-03T01:50:08.368Z,7.60
2023-02-03T01:53:37.742Z,8.60
2023-02-03T01:57:12.033Z,9.60
2023-02-03T02:00:39.306Z,9.50
2023-02-03T02:04:08.146Z,8.70
2023-02-03T02:07:35.842Z,8.00
2023-02-03T02:11:04.716Z,8.10
2023-02-03T02:14:32.515Z,7.20
2023-02-03T02:18:17.521Z,7.40
2023-02-03T02:22:08.254Z,7.40
2023-02-03T02:25:57.835Z,11.00
2023-02-03T02:29:57.903Z,7.90
2023-02-03T02:33:37.799Z,7.00
2023-02-03T02:37:17.058Z,7.30
2023-02-03T02:40:50.972Z,7.80
2023-02-03T02:44:24.908Z,9.10
2023-02-03T02:51:21.268Z,8.60
2023-02-03T02:54:53.104Z,8.10
2023-02-03T02:58:23.154Z,7.40
2023-02-03T03:01:53.039Z,7.70
2023-02-03T03:05:22.706Z,7.70
2023-02-03T03:08:57.249Z,9.50
2023-02-03T03:12:26.731Z,9.30
2023-02-03T03:15:56.532Z,9.60
2023-02-03T03:19:26.612Z,9.20
2023-02-03T03:22:59.142Z,9.00
2023-02-03T03:26:30.340Z,8.50
2023-02-03T03:30:02.077Z,8.90
2023-02-03T03:33:31.054Z,8.90
2023-02-03T03:37:04.885Z,8.90
2023-02-03T03:40:39.287Z,8.70
2023-02-03T03:44:17.183Z,8.40
2023-02-03T03:47:49.138Z,7.70
2023-02-03T03:51:21.660Z,7.70
2023-02-03T03:54:50.287Z,9.00
2023-02-03T03:58:22.731Z,7.70
2023-02-03T04:01:59.040Z,7.00
2023-02-03T04:05:29.408Z,7.00
2023-02-03T04:08:56.698Z,8.20
2023-02-03T04:12:25.866Z,8.30
2023-02-03T04:15:55.440Z,8.10
2023-02-03T04:19:23.633Z,7.50
2023-02-03T04:22:52.214Z,6.90
2023-02-03T04:26:19.468Z,7.70
2023-02-03T04:29:47.818Z,7.00
2023-02-03T04:33:15.179Z,7.30
2023-02-03T04:36:43.893Z,7.60
2023-02-03T04:40:14.964Z,7.80
2023-02-03T04:43:43.339Z,6.90
2023-02-03T04:47:11.313Z,6.60
2023-02-03T04:50:38.506Z,6.20
2023-02-03T04:54:06.424Z,6.50
2023-02-03T04:57:33.252Z,7.40
2023-02-03T05:01:07.797Z,7.80
2023-02-03T05:04:35.209Z,7.00
2023-02-03T05:08:02.229Z,6.90
2023-02-03T05:11:31.207Z,6.30
2023-02-03T05:15:00.045Z,6.00
2023-02-03T05:18:27.007Z,5.90
2023-02-03T05:21:54.256Z,6.50
2023-02-03T05:25:23.554Z,6.40
2023-02-03T05:28:52.398Z,5.80
2023-02-03T05:32:19.970Z,5.90
2023-02-03T05:35:47.061Z,6.20
2023-02-03T05:39:14.127Z,6.30
2023-02-03T05:42:40.623Z,6.90
2023-02-03T05:46:09.106Z,7.10
2023-02-03T05:49:35.759Z,7.20
2023-02-03T05:53:03.728Z,7.30
2023-02-03T05:56:31.605Z,6.70
2023-02-03T05:59:59.801Z,6.40
2023-02-03T06:03:26.636Z,6.50
2023-02-03T06:06:54.274Z,7.50
2023-02-03T06:10:22.060Z,7.10
2023-02-03T06:13:50.563Z,6.80
2023-02-03T06:17:18.437Z,6.90
2023-02-03T06:20:45.463Z,7.80
2023-02-03T06:24:13.857Z,7.90
2023-02-03T06:27:42.592Z,7.20
2023-02-03T06:31:11.154Z,7.40
2023-02-03T06:34:39.214Z,6.60
2023-02-03T06:38:05.972Z,7.10
2023-02-03T06:41:33.075Z,7.80
2023-02-03T06:44:59.885Z,7.90
2023-02-03T06:48:26.289Z,7.90
2023-02-03T06:51:53.300Z,7.80
2023-02-03T06:55:21.147Z,7.50
2023-02-03T06:58:47.810Z,8.50
2023-02-03T07:02:14.700Z,9.60
2023-02-03T07:05:41.467Z,10.00
2023-02-03T07:09:08.872Z,12.50
2023-02-03T07:12:37.229Z,10.70
2023-02-03T07:16:04.751Z,11.20
2023-02-03T07:19:31.555Z,10.70
2023-02-03T07:22:59.663Z,11.60
2023-02-03T07:26:26.828Z,12.20
2023-02-03T07:29:53.777Z,12.40
2023-02-03T07:33:20.579Z,14.60
2023-02-03T07:36:47.229Z,12.00
2023-02-03T07:40:16.346Z,12.40
2023-02-03T07:43:43.595Z,14.30
2023-02-03T07:47:12.456Z,12.10
2023-02-03T07:50:40.271Z,13.70
2023-02-03T07:54:07.817Z,10.00
2023-02-03T07:57:34.920Z,10.20
2023-02-03T08:01:12.745Z,10.30
2023-02-03T08:04:39.944Z,13.30
2023-02-03T08:08:07.075Z,14.30
2023-02-03T08:11:34.307Z,14.00
2023-02-03T08:15:01.571Z,26.10
2023-02-03T08:18:32.290Z,16.70
2023-02-03T08:21:59.939Z,20.00
2023-02-03T08:25:26.464Z,15.30
2023-02-03T08:28:53.859Z,17.20
2023-02-03T08:32:23.218Z,23.80
2023-02-03T08:35:53.895Z,17.00
2023-02-03T08:39:20.617Z,21.90
2023-02-03T08:42:47.831Z,17.00
2023-02-03T08:46:16.310Z,12.50
2023-02-03T08:49:43.741Z,15.00
2023-02-03T08:53:10.496Z,10.30
2023-02-03T08:56:37.650Z,25.00
2023-02-03T09:00:06.459Z,12.80
2023-02-03T09:03:33.716Z,19.30
2023-02-03T09:07:01.056Z,18.70
2023-02-03T09:10:31.331Z,13.50
2023-02-03T09:13:58.486Z,16.10
2023-02-03T09:17:26.252Z,15.00
2023-02-03T09:20:53.535Z,12.60
2023-02-03T09:24:21.167Z,12.10
2023-02-03T09:27:47.971Z,20.90
2023-02-03T09:31:18.159Z,12.30
2023-02-03T09:34:44.962Z,16.50
2023-02-03T09:38:11.859Z,13.80
2023-02-03T09:42:01.253Z,12.50
2023-02-03T09:45:30.900Z,12.80
2023-02-03T09:49:01.081Z,15.10
2023-02-03T09:52:30.871Z,15.80
2023-02-03T09:55:59.644Z,15.80
2023-02-03T09:59:27.728Z,15.70
2023-02-03T10:03:05.512Z,17.40
2023-02-03T10:06:38.136Z,16.20
2023-02-03T10:10:16.443Z,16.90
2023-02-03T10:14:09.970Z,16.50
2023-02-03T10:17:40.997Z,16.70
2023-02-03T10:21:19.720Z,13.90
2023-02-03T10:24:53.648Z,16.60
2023-02-03T10:28:24.302Z,13.60
2023-02-03T10:31:58.971Z,13.50
2023-02-03T10:35:34.797Z,13.20
2023-02-03T10:39:09.905Z,14.20
2023-02-03T10:42:55.260Z,136.90
2023-02-03T10:46:28.203Z,107.90
2023-02-03T10:49:58.106Z,48.60
2023-02-03T10:53:34.578Z,22.10
2023-02-03T10:57:13.049Z,16.50
2023-02-03T11:00:40.437Z,11.20
2023-02-03T11:04:10.352Z,10.50
2023-02-03T11:07:38.520Z,10.10
2023-02-03T11:11:12.751Z,9.70
2023-02-03T11:14:46.074Z,8.80
2023-02-03T11:18:34.664Z,10.40
2023-02-03T11:22:02.337Z,10.90
2023-02-03T11:25:34.734Z,11.20
2023-02-03T11:29:04.465Z,13.30
2023-02-03T11:32:38.181Z,13.10
2023-02-03T11:36:06.894Z,13.80
2023-02-03T11:39:35.996Z,16.60
2023-02-03T11:43:16.922Z,18.80
2023-02-03T11:46:45.626Z,19.10
2023-02-03T11:50:28.838Z,19.40
2023-02-03T11:54:20.300Z,21.10
2023-02-03T11:58:00.479Z,21.00
2023-02-03T12:01:52.508Z,16.40
2023-02-03T12:05:33.300Z,16.80
2023-02-03T12:09:22.046Z,16.80
2023-02-03T12:12:58.447Z,16.50
2023-02-03T12:16:48.283Z,12.80
2023-02-03T12:20:40.880Z,15.60
2023-02-03T12:24:17.014Z,15.90
2023-02-03T12:27:51.723Z,15.80
2023-02-03T12:31:27.705Z,14.80
2023-02-03T12:35:01.032Z,15.90
2023-02-03T12:38:36.505Z,16.30
2023-02-03T12:42:07.885Z,27.50
2023-02-03T12:45:39.969Z,16.60
2023-02-03T12:49:16.970Z,13.90
2023-02-03T12:52:55.935Z,20.60
2023-02-03T12:56:30.897Z,15.80
2023-02-03T13:00:13.187Z,14.80
2023-02-03T13:03:49.235Z,16.30
2023-02-03T13:07:26.161Z,14.50
2023-02-03T13:11:08.150Z,14.40
2023-02-03T13:14:44.587Z,17.60
2023-02-03T13:18:26.733Z,16.90
2023-02-03T13:21:58.822Z,15.70
2023-02-03T13:25:40.821Z,15.90
2023-02-03T13:29:26.692Z,15.40
2023-02-03T13:33:42.237Z,13.90
2023-02-03T13:37:41.864Z,11.90
2023-02-03T13:41:18.002Z,15.50
2023-02-03T13:44:50.661Z,15.00
2023-02-03T13:48:22.332Z,16.60
2023-02-03T13:51:50.413Z,30.10
2023-02-03T13:55:32.413Z,34.30
2023-02-03T13:59:08.631Z,22.20
2023-02-03T14:02:55.921Z,19.30
2023-02-03T14:07:02.497Z,17.50
2023-02-03T14:10:32.197Z,15.30
2023-02-03T14:14:30.829Z,11.20
2023-02-03T14:18:03.890Z,17.40
2023-02-03T14:21:40.251Z,18.60
2023-02-03T14:25:10.705Z,27.20
2023-02-03T14:28:44.041Z,20.90
2023-02-03T14:32:14.036Z,19.00
2023-02-03T14:35:43.239Z,16.40
2023-02-03T14:39:41.924Z,14.10
2023-02-03T14:43:24.878Z,15.30
2023-02-03T14:47:11.465Z,13.70
2023-02-03T14:50:48.875Z,15.00
2023-02-03T14:54:34.694Z,14.80
2023-02-03T14:58:05.763Z,21.10
2023-02-03T15:02:14.971Z,21.70
2023-02-03T15:05:44.843Z,22.10
2023-02-03T15:09:27.762Z,21.70
2023-02-03T15:12:55.737Z,19.50
2023-02-03T15:16:25.172Z,18.30
2023-02-03T15:19:52.520Z,15.80
2023-02-03T15:23:25.113Z,15.20
2023-02-03T15:26:53.923Z,15.90
2023-02-03T15:30:25.248Z,15.10
2023-02-03T15:33:57.884Z,15.60
2023-02-03T15:37:30.018Z,13.90
2023-02-03T15:40:59.727Z,13.90
2023-02-03T15:44:33.104Z,13.80
2023-02-03T15:48:09.647Z,13.40
2023-02-03T15:51:41.482Z,11.70
2023-02-03T15:55:18.680Z,12.90
2023-02-03T15:58:51.266Z,10.10
2023-02-03T16:02:29.730Z,9.20
2023-02-03T16:05:57.497Z,8.50
2023-02-03T16:09:34.103Z,8.50
2023-02-03T16:16:39.801Z,8.00
2023-02-03T16:20:35.792Z,9.60
2023-02-03T16:24:07.819Z,8.70
2023-02-03T16:27:39.701Z,14.00
2023-02-03T16:31:35.216Z,21.20
2023-02-03T16:35:21.688Z,19.50
2023-02-03T16:39:17.751Z,13.60
2023-02-03T16:43:18.708Z,12.80
2023-02-03T16:47:06.211Z,12.60
2023-02-03T16:51:22.518Z,14.80
2023-02-03T16:55:00.520Z,14.40
2023-02-03T16:58:29.762Z,14.30
2023-02-03T17:02:01.718Z,11.70
2023-02-03T17:05:32.332Z,11.40
2023-02-03T17:09:03.744Z,13.40
2023-02-03T17:12:40.620Z,11.70
2023-02-03T17:16:18.721Z,10.90
2023-02-03T17:19:46.693Z,9.40
2023-02-03T17:23:16.721Z,10.90
2023-02-03T17:26:44.720Z,12.60
2023-02-03T17:30:22.554Z,11.80
2023-02-03T17:33:58.780Z,10.50
2023-02-03T17:37:28.530Z,10.60
2023-02-03T17:56:13.926Z,13.80
2023-02-03T17:59:41.353Z,11.90
2023-02-03T18:03:08.671Z,11.90
2023-02-03T18:06:37.037Z,11.40
2023-02-03T18:10:11.606Z,11.60
2023-02-03T18:17:14.330Z,9.90
2023-02-03T18:20:44.295Z,10.50
2023-02-03T18:24:13.716Z,10.20
2023-02-03T18:27:41.483Z,9.20
2023-02-03T18:31:12.494Z,8.20
2023-02-03T18:34:39.377Z,8.30
2023-02-03T18:38:07.843Z,9.50
2023-02-03T18:41:34.955Z,11.00
2023-02-03T18:45:05.651Z,12.60
2023-02-03T18:48:33.844Z,17.90
2023-02-03T18:52:05.507Z,15.80
2023-02-03T18:55:32.593Z,24.40
2023-02-03T18:59:00.033Z,27.60
2023-02-03T19:02:28.219Z,41.90
2023-02-03T19:05:56.955Z,37.30
2023-02-03T19:09:25.502Z,53.00
2023-02-03T19:12:52.784Z,36.80
2023-02-03T19:16:21.772Z,39.50
2023-02-03T19:19:48.737Z,36.00
2023-02-03T19:23:15.904Z,35.50
2023-02-03T19:26:44.589Z,34.70
2023-02-03T19:30:14.772Z,31.10
2023-02-03T19:33:42.080Z,28.20
2023-02-03T19:37:10.145Z,27.20
2023-02-03T19:40:38.058Z,27.30
2023-02-03T19:44:06.050Z,29.20
2023-02-03T19:47:36.468Z,30.40
2023-02-03T19:51:08.184Z,28.80
2023-02-03T19:54:36.656Z,30.00
2023-02-03T19:58:06.102Z,29.20
2023-02-03T20:01:33.270Z,28.60
2023-02-03T20:05:00.322Z,28.30
2023-02-03T20:08:29.106Z,29.00
2023-02-03T20:11:59.956Z,23.50
2023-02-03T20:15:28.916Z,23.70
2023-02-03T20:19:01.444Z,24.10
2023-02-03T20:22:30.873Z,21.60
2023-02-03T20:25:59.479Z,25.90
2023-02-03T20:29:27.848Z,22.40
2023-02-03T20:32:56.541Z,21.70
2023-02-03T20:36:24.109Z,21.90
2023-02-03T20:39:51.768Z,21.20
2023-02-03T20:43:22.971Z,34.30
2023-02-03T20:46:52.708Z,20.10
2023-02-03T20:50:28.938Z,21.50
2023-02-03T20:53:58.774Z,20.80
2023-02-03T20:57:26.084Z,20.90
2023-02-03T21:00:54.290Z,21.00
2023-02-03T21:04:39.973Z,22.40
2023-02-03T21:08:13.634Z,28.30
2023-02-03T21:11:40.571Z,22.50
2023-02-03T21:15:21.465Z,26.10
2023-02-03T21:18:54.238Z,30.00
2023-02-03T21:22:25.614Z,24.40
2023-02-03T21:25:52.228Z,26.10
2023-02-03T21:29:24.323Z,29.40
2023-02-03T21:32:51.624Z,23.10
2023-02-03T21:36:20.805Z,22.60
2023-02-03T21:39:49.542Z,19.80
2023-02-03T21:43:20.276Z,18.20
2023-02-03T21:46:47.418Z,20.50
2023-02-03T21:50:32.061Z,20.40
2023-02-03T21:54:00.870Z,16.60
2023-02-03T21:57:31.319Z,14.40
2023-02-03T22:01:02.440Z,15.10
2023-02-03T22:04:32.244Z,14.10
2023-02-03T22:07:59.575Z,15.20
2023-02-03T22:11:28.970Z,17.80
2023-02-03T22:14:57.041Z,12.30
2023-02-03T22:18:23.811Z,12.50
2023-02-03T22:21:52.841Z,12.00
2023-02-03T22:25:19.555Z,13.20
2023-02-03T22:28:47.206Z,12.90
2023-02-03T22:32:18.119Z,11.80
2023-02-03T22:35:45.709Z,11.20
2023-02-03T22:39:12.559Z,10.40
2023-02-03T22:42:42.317Z,12.80
2023-02-03T22:46:10.665Z,11.10
2023-02-03T22:49:37.762Z,12.30
2023-02-03T22:53:05.102Z,13.50
2023-02-03T22:56:36.579Z,15.00
2023-02-03T23:00:03.979Z,10.60
2023-02-03T23:03:32.903Z,8.70
2023-02-03T23:07:00.390Z,9.30
2023-02-03T23:10:31.589Z,10.50
2023-02-03T23:13:58.989Z,11.40
2023-02-03T23:17:25.677Z,11.40
2023-02-03T23:20:52.540Z,8.40
2023-02-03T23:24:21.264Z,7.30
2023-02-03T23:27:49.339Z,7.10
2023-02-03T23:31:16.817Z,6.00
2023-02-03T23:34:57.570Z,7.80
2023-02-03T23:38:25.536Z,4.90
2023-02-03T23:41:52.717Z,4.20
2023-02-03T23:45:20.343Z,6.80
2023-02-03T23:48:48.076Z,5.80
2023-02-03T23:52:19.824Z,5.80
2023-02-03T23:55:48.030Z,6.40
2023-02-03T23:59:17.588Z,7.60
